createdAt,value
2017-08-27T00:02:07.793Z,70.20
2017-08-27T00:04:35.957Z,70.10
2017-08-27T00:07:04.154Z,70.30
2017-08-27T00:09:32.317Z,70.40
2017-08-27T00:12:00.495Z,70.50
2017-08-27T00:14:28.676Z,70.80
2017-08-27T00:16:56.837Z,71.00
2017-08-27T00:19:24.990Z,71.10
2017-08-27T00:21:53.166Z,71.00
2017-08-27T00:24:21.316Z,71.20
2017-08-27T00:26:49.496Z,71.30
2017-08-27T00:29:17.673Z,71.50
2017-08-27T00:31:46.602Z,72.10
2017-08-27T00:34:14.755Z,72.00
2017-08-27T00:36:42.977Z,72.40
2017-08-27T00:39:11.145Z,73.00
2017-08-27T00:41:39.317Z,73.60
2017-08-27T00:44:07.520Z,74.00
2017-08-27T00:46:35.676Z,74.60
2017-08-27T00:49:03.830Z,75.20
2017-08-27T00:51:32.021Z,76.10
2017-08-27T00:54:00.176Z,76.40
2017-08-27T00:56:28.344Z,77.10
2017-08-27T00:58:56.546Z,78.10
2017-08-27T01:01:24.693Z,78.50
2017-08-27T01:03:52.860Z,79.00
2017-08-27T01:06:21.067Z,79.40
2017-08-27T01:08:49.213Z,79.90
2017-08-27T01:11:17.390Z,80.40
2017-08-27T01:13:45.575Z,80.80
2017-08-27T01:16:13.733Z,81.20
2017-08-27T01:18:41.908Z,81.70
2017-08-27T01:21:10.088Z,82.00
2017-08-27T01:23:38.276Z,82.60
2017-08-27T01:26:06.452Z,82.90
2017-08-27T01:28:34.645Z,83.40
2017-08-27T01:31:02.818Z,83.80
2017-08-27T01:33:30.989Z,85.10
2017-08-27T01:35:59.497Z,84.30
2017-08-27T01:38:27.950Z,84.20
2017-08-27T01:40:56.103Z,84.40
2017-08-27T01:43:24.314Z,84.90
2017-08-27T01:45:52.489Z,85.30
2017-08-27T01:48:20.644Z,85.40
2017-08-27T01:50:48.823Z,85.30
2017-08-27T01:53:22.804Z,85.50
2017-08-27T01:55:51.020Z,85.60
2017-08-27T01:58:19.194Z,85.50
2017-08-27T02:00:47.368Z,85.60
2017-08-27T02:03:15.568Z,85.70
2017-08-27T02:05:43.742Z,85.80
2017-08-27T02:08:12.632Z,87.00
2017-08-27T02:10:40.838Z,86.30
2017-08-27T02:13:09.015Z,86.10
2017-08-27T02:15:37.214Z,86.30
2017-08-27T02:18:05.401Z,86.50
2017-08-27T02:20:33.569Z,86.10
2017-08-27T02:23:01.723Z,86.00
2017-08-27T02:25:29.902Z,85.60
2017-08-27T02:27:58.060Z,85.60
2017-08-27T02:30:26.232Z,85.40
2017-08-27T02:32:54.413Z,85.40
2017-08-27T02:35:22.566Z,85.60
2017-08-27T02:37:50.715Z,85.30
2017-08-27T02:40:18.910Z,85.00
2017-08-27T02:42:47.072Z,85.20
2017-08-27T02:45:15.241Z,85.00
2017-08-27T02:47:43.443Z,85.10
2017-08-27T02:50:11.605Z,85.00
2017-08-27T02:52:39.828Z,85.20
2017-08-27T02:55:08.041Z,84.90
2017-08-27T02:57:36.193Z,84.70
2017-08-27T03:00:04.361Z,85.10
2017-08-27T03:02:32.558Z,85.30
2017-08-27T03:05:00.710Z,85.80
2017-08-27T03:07:28.864Z,85.80
2017-08-27T03:09:57.054Z,86.30
2017-08-27T03:12:25.199Z,85.60
2017-08-27T03:14:53.914Z,86.10
2017-08-27T03:17:22.115Z,86.50
2017-08-27T03:19:50.289Z,86.20
2017-08-27T03:22:18.443Z,86.20
2017-08-27T03:24:46.641Z,86.30
2017-08-27T03:27:14.794Z,86.50
2017-08-27T03:29:42.964Z,86.30
2017-08-27T03:32:11.139Z,86.40
2017-08-27T03:34:39.420Z,86.70
2017-08-27T03:37:07.564Z,86.90
2017-08-27T03:39:35.756Z,87.10
2017-08-27T03:42:03.902Z,87.40
2017-08-27T03:44:32.073Z,88.00
2017-08-27T03:47:00.272Z,87.80
2017-08-27T03:49:28.432Z,88.10
2017-08-27T03:51:56.593Z,87.90
2017-08-27T03:54:24.796Z,87.90
2017-08-27T03:56:52.970Z,87.90
2017-08-27T03:59:21.146Z,87.90
2017-08-27T04:01:49.341Z,87.70
2017-08-27T04:04:17.516Z,87.90
2017-08-27T04:06:45.678Z,88.00
2017-08-27T04:09:13.871Z,88.30
2017-08-27T04:11:42.050Z,88.40
2017-08-27T04:14:10.199Z,88.80
2017-08-27T04:16:38.403Z,88.70
2017-08-27T04:19:06.572Z,88.30
2017-08-27T04:21:34.737Z,88.20
2017-08-27T04:24:02.936Z,88.20
2017-08-27T04:26:31.083Z,88.40
2017-08-27T04:28:59.256Z,88.50
2017-08-27T04:31:27.426Z,89.00
2017-08-27T04:33:55.588Z,89.50
2017-08-27T04:36:23.756Z,89.80
2017-08-27T04:38:51.942Z,89.40
2017-08-27T04:41:20.091Z,89.40
2017-08-27T04:43:48.269Z,89.40
2017-08-27T04:46:16.446Z,89.90
2017-08-27T04:48:45.364Z,89.80
2017-08-27T04:51:13.513Z,89.70
2017-08-27T04:53:41.716Z,89.40
2017-08-27T04:56:09.869Z,89.40
2017-08-27T04:58:38.035Z,89.30
2017-08-27T05:01:06.256Z,89.10
2017-08-27T05:03:34.411Z,89.00
2017-08-27T05:06:02.561Z,88.70
2017-08-27T05:08:31.078Z,88.70
2017-08-27T05:10:59.225Z,88.90
2017-08-27T05:13:27.376Z,89.10
2017-08-27T05:15:55.559Z,89.10
2017-08-27T05:18:23.718Z,89.30
2017-08-27T05:20:51.874Z,89.40
2017-08-27T05:23:20.054Z,89.10
2017-08-27T05:25:48.202Z,88.90
2017-08-27T05:28:16.371Z,89.10
2017-08-27T05:30:44.573Z,89.20
2017-08-27T05:33:12.726Z,88.90
2017-08-27T05:35:40.907Z,88.50
2017-08-27T05:38:09.095Z,88.40
2017-08-27T05:40:37.247Z,88.10
2017-08-27T05:43:05.404Z,88.10
2017-08-27T05:45:33.598Z,88.10
2017-08-27T05:48:01.758Z,87.90
2017-08-27T05:50:29.910Z,87.60
2017-08-27T05:52:58.095Z,87.30
2017-08-27T05:55:26.246Z,87.00
2017-08-27T05:57:54.408Z,86.60
2017-08-27T06:00:22.842Z,86.00
2017-08-27T06:02:51.022Z,85.30
2017-08-27T06:05:19.178Z,84.60
2017-08-27T06:07:47.380Z,84.00
2017-08-27T06:10:15.537Z,83.20
2017-08-27T06:12:43.695Z,82.70
2017-08-27T06:15:11.893Z,82.30
2017-08-27T06:17:40.063Z,82.00
2017-08-27T06:20:08.215Z,81.30
2017-08-27T06:22:36.413Z,80.40
2017-08-27T06:25:04.567Z,80.10
2017-08-27T06:27:32.770Z,79.80
2017-08-27T06:30:00.954Z,78.80
2017-08-27T06:32:29.435Z,78.50
2017-08-27T06:34:57.613Z,77.40
2017-08-27T06:37:25.792Z,76.30
2017-08-27T06:39:53.969Z,75.70
2017-08-27T06:42:22.139Z,75.10
2017-08-27T06:44:50.331Z,73.50
2017-08-27T06:47:18.502Z,72.70
2017-08-27T06:49:46.679Z,72.20
2017-08-27T06:52:14.880Z,71.00
2017-08-27T06:54:43.814Z,69.30
2017-08-27T06:57:11.961Z,69.20
2017-08-27T06:59:40.138Z,68.40
2017-08-27T07:02:08.309Z,68.30
2017-08-27T07:04:36.461Z,67.90
2017-08-27T07:07:04.635Z,66.80
2017-08-27T07:09:32.780Z,66.00
2017-08-27T07:12:00.939Z,65.70
2017-08-27T07:14:29.132Z,65.00
2017-08-27T07:16:57.304Z,63.50
2017-08-27T07:19:25.457Z,61.80
2017-08-27T07:21:53.637Z,61.50
2017-08-27T07:24:21.782Z,60.50
2017-08-27T07:26:49.922Z,59.30
2017-08-27T07:29:18.095Z,59.40
2017-08-27T07:31:46.270Z,58.90
2017-08-27T07:34:14.440Z,57.30
2017-08-27T07:36:42.609Z,57.60
2017-08-27T07:39:10.776Z,56.60
2017-08-27T07:41:38.948Z,55.80
2017-08-27T07:44:07.119Z,55.30
2017-08-27T07:46:35.286Z,55.00
2017-08-27T07:49:03.440Z,55.00
2017-08-27T07:51:31.621Z,54.30
2017-08-27T07:53:59.792Z,53.90
2017-08-27T07:56:27.943Z,53.20
2017-08-27T07:58:56.126Z,53.20
2017-08-27T08:01:24.272Z,53.70
2017-08-27T08:03:52.447Z,52.10
2017-08-27T08:06:20.622Z,51.50
2017-08-27T08:08:48.788Z,50.60
2017-08-27T08:11:16.939Z,49.20
2017-08-27T08:13:45.132Z,47.30
2017-08-27T08:16:13.304Z,44.80
2017-08-27T08:18:41.498Z,44.90
2017-08-27T08:21:10.452Z,41.30
2017-08-27T08:23:38.617Z,41.30
2017-08-27T08:26:06.798Z,39.30
2017-08-27T08:28:34.972Z,38.30
2017-08-27T08:31:03.128Z,38.20
2017-08-27T08:33:31.278Z,39.00
2017-08-27T08:35:59.478Z,39.60
2017-08-27T08:38:27.640Z,41.10
2017-08-27T08:40:55.818Z,41.60
2017-08-27T08:43:24.010Z,40.00
2017-08-27T08:45:52.188Z,37.50
2017-08-27T08:48:20.354Z,36.60
2017-08-27T08:50:48.528Z,38.10
2017-08-27T08:53:16.678Z,39.40
2017-08-27T08:55:44.856Z,40.10
2017-08-27T08:58:13.023Z,41.80
2017-08-27T09:00:41.185Z,41.00
2017-08-27T09:03:09.360Z,39.30
2017-08-27T09:05:37.553Z,38.50
2017-08-27T09:08:05.699Z,40.10
2017-08-27T09:10:33.877Z,42.70
2017-08-27T09:13:02.071Z,44.90
2017-08-27T09:15:30.253Z,46.60
2017-08-27T09:17:58.413Z,48.10
2017-08-27T09:20:26.616Z,48.80
2017-08-27T09:22:54.816Z,47.70
2017-08-27T09:25:22.978Z,44.70
2017-08-27T09:27:51.158Z,40.50
2017-08-27T09:30:19.325Z,36.90
2017-08-27T09:32:47.474Z,34.70
2017-08-27T09:35:15.670Z,33.20
2017-08-27T09:37:43.814Z,33.70
2017-08-27T09:40:11.977Z,34.60
2017-08-27T09:42:40.937Z,32.60
2017-08-27T09:45:09.111Z,32.60
2017-08-27T09:47:37.268Z,31.60
2017-08-27T09:50:05.444Z,32.90
2017-08-27T09:52:33.593Z,34.20
2017-08-27T09:55:01.744Z,34.60
2017-08-27T09:57:29.944Z,35.20
2017-08-27T09:59:58.115Z,32.30
2017-08-27T10:02:26.260Z,31.00
2017-08-27T10:04:54.432Z,30.00
2017-08-27T10:07:22.585Z,28.70
2017-08-27T10:09:50.733Z,27.50
2017-08-27T10:12:19.662Z,28.10
2017-08-27T10:14:47.838Z,28.20
2017-08-27T10:17:15.986Z,28.20
2017-08-27T10:19:44.172Z,27.60
2017-08-27T10:22:12.337Z,27.50
2017-08-27T10:24:40.747Z,26.90
2017-08-27T10:27:08.931Z,26.30
2017-08-27T10:29:37.843Z,28.50
2017-08-27T10:32:05.992Z,28.50
2017-08-27T10:34:34.928Z,30.10
2017-08-27T10:37:03.093Z,30.10
2017-08-27T10:39:32.020Z,28.90
2017-08-27T10:42:00.212Z,28.90
2017-08-27T10:44:28.447Z,28.90
2017-08-27T10:46:57.503Z,29.30
2017-08-27T10:49:25.678Z,30.00
2017-08-27T10:51:53.838Z,31.30
2017-08-27T10:54:21.982Z,33.20
2017-08-27T10:56:50.182Z,35.00
2017-08-27T10:59:18.330Z,34.90
2017-08-27T11:01:46.490Z,31.40
2017-08-27T11:04:14.677Z,28.80
2017-08-27T11:06:42.831Z,28.80
2017-08-27T11:09:10.994Z,28.70
2017-08-27T11:11:39.198Z,27.10
2017-08-27T11:14:07.369Z,26.00
2017-08-27T11:16:35.537Z,26.60
2017-08-27T11:19:03.711Z,27.60
2017-08-27T11:21:31.873Z,28.00
2017-08-27T11:24:00.030Z,29.10
2017-08-27T11:26:28.206Z,28.20
2017-08-27T11:28:57.246Z,26.30
2017-08-27T11:31:25.414Z,24.60
2017-08-27T11:33:53.602Z,23.00
2017-08-27T11:36:21.750Z,22.10
2017-08-27T11:38:49.917Z,21.10
2017-08-27T11:41:18.107Z,21.30
2017-08-27T11:43:46.274Z,21.60
2017-08-27T11:48:55.620Z,25.60
2017-08-27T11:51:23.496Z,27.80
2017-08-27T11:53:51.645Z,26.70
2017-08-27T11:56:19.832Z,25.00
2017-08-27T11:58:47.984Z,23.60
2017-08-27T12:01:16.149Z,22.80
2017-08-27T12:03:45.113Z,26.90
2017-08-27T12:06:13.281Z,26.80
2017-08-27T12:08:41.445Z,27.70
2017-08-27T12:11:09.635Z,27.20
2017-08-27T12:13:37.799Z,25.70
2017-08-27T12:16:05.950Z,25.00
2017-08-27T12:18:34.123Z,24.10
2017-08-27T12:21:02.285Z,24.70
2017-08-27T12:23:30.444Z,26.80
2017-08-27T12:25:58.632Z,28.00
2017-08-27T12:28:26.792Z,28.30
2017-08-27T12:30:54.944Z,29.50
2017-08-27T12:33:23.125Z,29.30
2017-08-27T12:35:51.298Z,28.00
2017-08-27T12:38:19.464Z,27.70
2017-08-27T12:40:47.661Z,28.10
2017-08-27T12:43:15.831Z,28.90
2017-08-27T12:45:44.001Z,29.70
2017-08-27T12:48:12.201Z,29.90
2017-08-27T12:50:40.357Z,28.90
2017-08-27T12:53:08.522Z,29.50
2017-08-27T12:55:36.719Z,30.30
2017-08-27T12:58:04.862Z,30.80
2017-08-27T13:00:33.013Z,31.60
2017-08-27T13:03:01.192Z,32.20
2017-08-27T13:05:29.361Z,33.20
2017-08-27T13:07:57.541Z,32.40
2017-08-27T13:10:25.738Z,32.40
2017-08-27T13:12:53.911Z,34.30
2017-08-27T13:15:22.063Z,34.20
2017-08-27T13:17:50.245Z,34.60
2017-08-27T13:20:18.394Z,34.50
2017-08-27T13:22:46.534Z,34.10
2017-08-27T13:25:14.711Z,33.90
2017-08-27T13:27:42.863Z,34.30
2017-08-27T13:30:11.784Z,35.20
2017-08-27T13:32:39.968Z,35.20
2017-08-27T13:35:08.141Z,35.00
2017-08-27T13:37:36.296Z,34.80
2017-08-27T13:40:04.494Z,35.80
2017-08-27T13:42:32.648Z,34.90
2017-08-27T13:45:00.792Z,34.90
2017-08-27T13:47:28.993Z,34.60
2017-08-27T13:49:57.165Z,35.40
2017-08-27T13:52:25.336Z,34.30
2017-08-27T13:54:53.534Z,34.70
2017-08-27T13:57:21.702Z,36.20
2017-08-27T13:59:49.861Z,35.60
2017-08-27T14:02:18.039Z,35.70
2017-08-27T14:04:46.213Z,35.80
2017-08-27T14:07:14.385Z,36.40
2017-08-27T14:09:42.596Z,36.20
2017-08-27T14:12:10.754Z,35.70
2017-08-27T14:14:38.923Z,35.90
2017-08-27T14:17:07.106Z,36.80
2017-08-27T14:19:35.269Z,37.30
2017-08-27T14:22:03.449Z,37.90
2017-08-27T14:24:32.356Z,37.90
2017-08-27T14:27:00.553Z,37.80
2017-08-27T14:29:28.705Z,38.40
2017-08-27T14:31:56.894Z,36.80
2017-08-27T14:34:25.050Z,37.70
2017-08-27T14:36:53.221Z,38.60
2017-08-27T14:39:21.415Z,37.90
2017-08-27T14:41:49.583Z,39.10
2017-08-27T14:44:17.749Z,39.70
2017-08-27T14:46:45.947Z,40.20
2017-08-27T14:49:14.958Z,41.00
2017-08-27T14:51:43.120Z,40.90
2017-08-27T14:54:11.306Z,40.40
2017-08-27T14:56:39.477Z,40.70
2017-08-27T14:59:07.634Z,41.20
2017-08-27T15:01:35.814Z,41.80
2017-08-27T15:04:03.988Z,40.80
2017-08-27T15:06:32.156Z,41.00
2017-08-27T15:09:00.345Z,41.00
2017-08-27T15:11:28.493Z,41.10
2017-08-27T15:13:56.658Z,41.70
2017-08-27T15:16:25.625Z,42.30
2017-08-27T15:18:53.785Z,42.30
2017-08-27T15:21:21.940Z,41.40
2017-08-27T15:23:50.148Z,41.10
2017-08-27T15:26:18.322Z,41.80
2017-08-27T15:28:46.477Z,42.00
2017-08-27T15:31:14.712Z,42.20
2017-08-27T15:33:42.882Z,42.90
2017-08-27T15:36:11.046Z,42.60
2017-08-27T15:38:39.222Z,42.90
2017-08-27T15:41:07.366Z,43.50
2017-08-27T15:43:35.546Z,43.90
2017-08-27T15:46:04.504Z,44.80
2017-08-27T15:48:32.660Z,45.30
2017-08-27T15:51:00.829Z,44.10
2017-08-27T15:53:29.023Z,44.70
2017-08-27T15:55:57.193Z,44.60
2017-08-27T15:58:25.343Z,44.80
2017-08-27T16:00:53.538Z,44.70
2017-08-27T16:03:21.683Z,44.20
2017-08-27T16:05:49.842Z,43.60
2017-08-27T16:08:18.040Z,44.10
2017-08-27T16:10:46.183Z,45.10
2017-08-27T16:13:14.330Z,45.30
2017-08-27T16:15:42.502Z,45.60
2017-08-27T16:18:10.668Z,45.50
2017-08-27T16:20:38.814Z,45.90
2017-08-27T16:23:06.983Z,46.10
2017-08-27T16:25:36.076Z,46.00
2017-08-27T16:28:04.236Z,46.40
2017-08-27T16:30:32.417Z,45.60
2017-08-27T16:33:00.589Z,45.10
2017-08-27T16:35:28.766Z,45.90
2017-08-27T16:37:56.964Z,46.40
2017-08-27T16:40:25.120Z,46.50
2017-08-27T16:42:53.273Z,46.60
2017-08-27T16:45:22.239Z,47.30
2017-08-27T16:47:50.405Z,47.20
2017-08-27T16:50:18.555Z,47.50
2017-08-27T16:52:46.831Z,47.80
2017-08-27T16:55:14.992Z,48.10
2017-08-27T16:57:44.076Z,48.40
2017-08-27T17:00:12.249Z,48.80
2017-08-27T17:02:40.419Z,48.90
2017-08-27T17:05:08.586Z,49.00
2017-08-27T17:07:37.547Z,49.50
2017-08-27T17:10:05.697Z,49.40
2017-08-27T17:12:33.841Z,49.50
2017-08-27T17:15:02.036Z,49.60
2017-08-27T17:17:30.183Z,49.80
2017-08-27T17:19:58.354Z,49.60
2017-08-27T17:22:26.611Z,50.20
2017-08-27T17:24:54.778Z,50.30
2017-08-27T17:27:22.967Z,50.70
2017-08-27T17:29:51.144Z,51.10
2017-08-27T17:32:19.324Z,51.30
2017-08-27T17:34:47.479Z,51.60
2017-08-27T17:37:15.657Z,51.70
2017-08-27T17:39:43.832Z,52.40
2017-08-27T17:42:11.979Z,52.50
2017-08-27T17:44:40.179Z,52.70
2017-08-27T17:47:08.332Z,52.80
2017-08-27T17:49:36.497Z,53.30
2017-08-27T17:52:05.461Z,52.80
2017-08-27T17:54:33.626Z,52.80
2017-08-27T17:57:01.770Z,53.40
2017-08-27T17:59:29.951Z,53.70
2017-08-27T18:01:58.106Z,54.00
2017-08-27T18:04:26.277Z,54.10
2017-08-27T18:06:54.487Z,54.20
2017-08-27T18:09:22.685Z,54.50
2017-08-27T18:11:50.860Z,54.80
2017-08-27T18:14:19.072Z,55.10
2017-08-27T18:16:47.252Z,55.40
2017-08-27T18:19:15.420Z,55.80
2017-08-27T18:21:43.599Z,56.00
2017-08-27T18:24:11.776Z,56.30
2017-08-27T18:26:39.925Z,56.70
2017-08-27T18:29:08.102Z,57.00
2017-08-27T18:31:36.270Z,57.30
2017-08-27T18:34:04.434Z,57.50
2017-08-27T18:36:32.633Z,57.60
2017-08-27T18:39:00.817Z,58.00
2017-08-27T18:41:28.973Z,57.80
2017-08-27T18:43:57.146Z,58.00
2017-08-27T18:46:26.080Z,58.20
2017-08-27T18:48:54.243Z,58.20
2017-08-27T18:51:22.423Z,58.30
2017-08-27T18:53:50.629Z,58.40
2017-08-27T18:56:18.793Z,58.60
2017-08-27T18:58:47.086Z,58.70
2017-08-27T19:01:15.252Z,58.80
2017-08-27T19:03:49.091Z,58.90
2017-08-27T19:06:17.238Z,58.80
2017-08-27T19:08:46.336Z,58.80
2017-08-27T19:11:14.713Z,58.90
2017-08-27T19:13:42.882Z,59.10
2017-08-27T19:16:12.116Z,59.40
2017-08-27T19:18:40.310Z,59.40
2017-08-27T19:21:08.460Z,59.60
2017-08-27T19:23:36.602Z,59.60
2017-08-27T19:26:04.778Z,59.70
2017-08-27T19:28:32.927Z,59.70
2017-08-27T19:31:01.070Z,59.90
2017-08-27T19:33:29.246Z,60.10
2017-08-27T19:35:57.424Z,60.50
2017-08-27T19:38:25.594Z,60.70
2017-08-27T19:40:53.786Z,60.90
2017-08-27T19:43:21.950Z,61.20
2017-08-27T19:45:50.118Z,61.00
2017-08-27T19:48:18.295Z,61.50
2017-08-27T19:50:46.461Z,61.40
2017-08-27T19:53:15.372Z,61.80
2017-08-27T19:55:43.556Z,61.80
2017-08-27T19:58:11.724Z,61.70
2017-08-27T20:00:39.866Z,61.80
2017-08-27T20:03:08.043Z,61.90
2017-08-27T20:05:37.268Z,62.10
2017-08-27T20:08:05.422Z,62.20
2017-08-27T20:10:33.597Z,62.30
2017-08-27T20:13:01.764Z,62.50
2017-08-27T20:15:29.923Z,62.80
2017-08-27T20:17:58.124Z,62.90
2017-08-27T20:20:26.274Z,63.20
2017-08-27T20:22:54.450Z,63.40
2017-08-27T20:25:22.631Z,63.40
2017-08-27T20:27:50.798Z,63.30
2017-08-27T20:30:18.962Z,63.60
2017-08-27T20:32:47.163Z,63.60
2017-08-27T20:35:16.104Z,63.90
2017-08-27T20:37:44.273Z,64.40
2017-08-27T20:40:12.466Z,64.10
2017-08-27T20:42:40.619Z,64.20
2017-08-27T20:45:08.784Z,64.30
2017-08-27T20:47:37.034Z,64.40
2017-08-27T20:50:05.192Z,64.40
2017-08-27T20:52:33.345Z,64.70
2017-08-27T20:55:01.522Z,64.80
2017-08-27T20:57:29.686Z,64.80
2017-08-27T20:59:57.834Z,64.80
2017-08-27T21:02:26.025Z,65.00
2017-08-27T21:04:54.179Z,65.10
2017-08-27T21:07:22.345Z,65.10
2017-08-27T21:09:50.544Z,65.10
2017-08-27T21:12:18.690Z,65.20
2017-08-27T21:14:46.838Z,65.50
2017-08-27T21:17:15.018Z,65.50
2017-08-27T21:19:43.177Z,65.60
2017-08-27T21:22:11.327Z,65.80
2017-08-27T21:24:39.499Z,65.70
2017-08-27T21:27:07.643Z,66.10
2017-08-27T21:29:35.791Z,66.30
2017-08-27T21:32:04.760Z,67.30
2017-08-27T21:34:32.903Z,66.70
2017-08-27T21:37:01.045Z,66.80
2017-08-27T21:39:29.224Z,67.10
2017-08-27T21:41:57.366Z,67.30
2017-08-27T21:44:25.515Z,67.40
2017-08-27T21:46:53.706Z,67.50
2017-08-27T21:49:21.852Z,67.40
2017-08-27T21:51:50.012Z,67.50
2017-08-27T21:54:18.190Z,67.90
2017-08-27T21:56:46.334Z,67.90
2017-08-27T21:59:15.249Z,68.20
2017-08-27T22:01:43.448Z,68.30
2017-08-27T22:04:11.625Z,68.20
2017-08-27T22:06:39.796Z,68.10
2017-08-27T22:09:07.989Z,68.30
2017-08-27T22:11:36.129Z,68.60
2017-08-27T22:14:04.294Z,68.60
2017-08-27T22:16:32.491Z,68.30
2017-08-27T22:19:00.640Z,68.20
2017-08-27T22:21:28.782Z,68.40
2017-08-27T22:23:56.974Z,68.60
2017-08-27T22:26:25.126Z,68.90
2017-08-27T22:28:53.270Z,69.00
2017-08-27T22:31:21.462Z,69.40
2017-08-27T22:33:49.629Z,69.80
2017-08-27T22:36:17.774Z,69.80
2017-08-27T22:38:45.942Z,69.80
2017-08-27T22:41:14.087Z,69.90
2017-08-27T22:43:43.018Z,70.70
2017-08-27T22:46:12.390Z,69.80
2017-08-27T22:48:41.303Z,70.00
2017-08-27T22:51:09.451Z,70.00
2017-08-27T22:53:37.684Z,69.80
2017-08-27T22:56:05.831Z,70.10
2017-08-27T22:58:34.002Z,70.10
2017-08-27T23:01:02.187Z,70.50
2017-08-27T23:03:30.353Z,70.50
2017-08-27T23:05:58.494Z,70.60
2017-08-27T23:08:27.443Z,71.00
2017-08-27T23:10:55.616Z,70.90
2017-08-27T23:13:23.790Z,70.90
2017-08-27T23:15:51.985Z,70.70
2017-08-27T23:18:20.158Z,70.80
2017-08-27T23:20:48.308Z,71.00
2017-08-27T23:23:16.524Z,71.00
2017-08-27T23:25:44.669Z,71.10
2017-08-27T23:28:12.833Z,71.10
2017-08-27T23:30:41.009Z,70.80
2017-08-27T23:33:09.180Z,71.00
2017-08-27T23:35:37.329Z,71.40
2017-08-27T23:38:05.521Z,71.70
2017-08-27T23:40:33.667Z,71.60
2017-08-27T23:43:02.597Z,72.00
2017-08-27T23:45:30.779Z,71.90
2017-08-27T23:47:58.939Z,72.00
2017-08-27T23:50:27.082Z,72.20
2017-08-27T23:52:55.255Z,72.30
2017-08-27T23:55:23.403Z,72.50
2017-08-27T23:57:51.549Z,72.50
